Anatife — FGE8389 — position and weather

sailwx.info

Track history (hours):
 
Tides and Currents Weather Stations Pressure Air Temp Water Temp Dewpoint Dewpoint Depression Visibility Wind Speed Wind Dir Waves Ship Positions

Anatife

Last reported at 2014-Dec-22 08:04 UTC. Time now 2014-Dec-22 15:36 UTC.
Position N 47°12' W 001°37'.

Length 41 m; draft 2 m.

Type: Tanker. MMSI: 227681520.

Date/timePositionNaut miles runAvg speedWind from/ knotsBaromVisibWave heightAir tempDewpointWater temp
2014-Dec-22 08:04N 47°12' W 001°37'0 0.0
2014-Dec-22 02:32N 47°12' W 001°37'0 0.0
2014-Dec-22 01:26N 47°12' W 001°37'0 0.0
2014-Dec-21 13:30N 47°12' W 001°37'0 0.0
2014-Dec-21 10:19N 47°12' W 001°37'13 1.9
2014-Dec-21 03:11N 47°17' W 001°55'7 8.4
2014-Dec-21 02:22N 47°18' W 002°05'0 0.0
2014-Dec-21 01:10N 47°18' W 002°05'0 0.0
2014-Dec-20 23:32N 47°18' W 002°05'0 0.0
2014-Dec-20 22:14N 47°18' W 002°05'0 0.0
2014-Dec-20 19:33N 47°18' W 002°05'0 0.0
2014-Dec-20 18:23N 47°18' W 002°05'  
2014-Dec-17 11:25N 47°20' W 003°04'10 7.9
2014-Dec-17 10:07N 47°17' W 002°49'  
2014-Dec-14 09:16N 47°18' W 002°05'  
Track history (hours):
 
Tides and Currents Weather Stations Pressure Air Temp Water Temp Dewpoint Dewpoint Depression Visibility Wind Speed Wind Dir Waves Ship Positions

Anatife

Last reported at 2014-Dec-22 08:04 UTC. Time now 2014-Dec-22 15:36 UTC.
Position N 47°12' W 001°37'.

Length 41 m; draft 2 m.

Type: Tanker. MMSI: 227681520.

Date/timePositionNaut miles runAvg speedWind from/ knotsBaromVisibWave heightAir tempDewpointWater temp
2014-Dec-22 08:04N 47°12' W 001°37'0 0.0
2014-Dec-22 02:32N 47°12' W 001°37'0 0.0
2014-Dec-22 01:26N 47°12' W 001°37'0 0.0
2014-Dec-21 13:30N 47°12' W 001°37'0 0.0
2014-Dec-21 10:19N 47°12' W 001°37'13 1.9
2014-Dec-21 03:11N 47°17' W 001°55'7 8.4
2014-Dec-21 02:22N 47°18' W 002°05'0 0.0
2014-Dec-21 01:10N 47°18' W 002°05'0 0.0
2014-Dec-20 23:32N 47°18' W 002°05'0 0.0
2014-Dec-20 22:14N 47°18' W 002°05'0 0.0
2014-Dec-20 19:33N 47°18' W 002°05'0 0.0
2014-Dec-20 18:23N 47°18' W 002°05'  
2014-Dec-17 11:25N 47°20' W 003°04'10 7.9
2014-Dec-17 10:07N 47°17' W 002°49'  
2014-Dec-14 09:16N 47°18' W 002°05'  

Dump ship's entire track history